createdAt,value
2022-10-01T00:02:29.704Z,7.78
2022-10-01T00:04:59.713Z,8.65
2022-10-01T00:07:29.460Z,8.07
2022-10-01T00:09:59.204Z,8.68
2022-10-01T00:12:28.926Z,8.57
2022-10-01T00:15:05.791Z,8.43
2022-10-01T00:17:36.820Z,8.32
2022-10-01T00:20:14.034Z,8.63
2022-10-01T00:22:44.308Z,7.75
2022-10-01T00:25:14.123Z,8.30
2022-10-01T00:27:47.823Z,8.85
2022-10-01T00:30:21.652Z,8.20
2022-10-01T00:32:51.537Z,8.82
2022-10-01T00:35:22.136Z,8.60
2022-10-01T00:37:52.343Z,7.85
2022-10-01T00:40:23.833Z,8.07
2022-10-01T00:42:53.565Z,7.50
2022-10-01T00:45:26.163Z,7.03
2022-10-01T00:48:00.409Z,8.20
2022-10-01T00:50:34.836Z,7.30
2022-10-01T00:53:08.158Z,6.97
2022-10-01T00:55:40.535Z,7.45
2022-10-01T00:58:11.528Z,6.47
2022-10-01T01:00:45.822Z,6.55
2022-10-01T01:03:15.924Z,7.40
2022-10-01T01:05:47.763Z,6.88
2022-10-01T01:08:18.376Z,5.90
2022-10-01T01:10:55.994Z,6.63
2022-10-01T01:13:29.594Z,6.35
2022-10-01T01:16:07.900Z,6.10
2022-10-01T01:18:43.893Z,6.43
2022-10-01T01:21:25.958Z,6.75
2022-10-01T01:24:37.046Z,6.18
2022-10-01T01:27:31.315Z,5.75
2022-10-01T01:30:08.402Z,5.67
2022-10-01T01:32:46.423Z,6.00
2022-10-01T01:35:22.479Z,5.13
2022-10-01T01:37:57.098Z,5.78
2022-10-01T01:42:58.522Z,5.38
2022-10-01T01:45:32.933Z,4.55
2022-10-01T01:48:05.139Z,4.63
2022-10-01T01:50:40.266Z,4.43
2022-10-01T01:53:10.055Z,4.75
2022-10-01T01:55:41.069Z,4.10
2022-10-01T01:58:11.033Z,3.85
2022-10-01T02:00:44.004Z,4.00
2022-10-01T02:03:14.278Z,4.03
2022-10-01T02:05:55.742Z,4.03
2022-10-01T02:08:33.084Z,4.50
2022-10-01T02:11:14.701Z,3.75
2022-10-01T02:13:52.856Z,3.63
2022-10-01T02:16:32.825Z,4.35
2022-10-01T02:19:08.147Z,3.58
2022-10-01T02:21:41.779Z,3.97
2022-10-01T02:24:19.316Z,4.73
2022-10-01T02:26:52.314Z,3.60
2022-10-01T02:29:25.809Z,3.80
2022-10-01T02:31:59.988Z,3.90
2022-10-01T02:34:32.990Z,3.15
2022-10-01T02:37:07.319Z,3.70
2022-10-01T02:39:38.673Z,3.58
2022-10-01T02:42:11.215Z,3.40
2022-10-01T02:44:45.204Z,3.40
2022-10-01T02:47:22.948Z,2.92
2022-10-01T02:49:53.740Z,2.88
2022-10-01T02:52:29.895Z,3.08
2022-10-01T02:55:03.367Z,3.10
2022-10-01T02:57:30.626Z,3.42
2022-10-01T03:00:03.120Z,2.70
2022-10-01T03:02:35.679Z,3.10
2022-10-01T03:05:06.104Z,3.00
2022-10-01T03:07:37.988Z,2.92
2022-10-01T03:10:08.892Z,3.00
2022-10-01T03:12:42.891Z,3.00
2022-10-01T03:15:13.429Z,2.65
2022-10-01T03:17:45.898Z,2.90
2022-10-01T03:20:15.935Z,2.95
2022-10-01T03:22:47.622Z,2.40
2022-10-01T03:25:17.867Z,2.80
2022-10-01T03:27:48.534Z,2.90
2022-10-01T03:30:18.417Z,3.33
2022-10-01T03:32:50.729Z,3.10
2022-10-01T03:35:20.476Z,2.80
2022-10-01T03:37:50.331Z,2.88
2022-10-01T03:40:20.108Z,2.92
2022-10-01T03:42:51.088Z,2.90
2022-10-01T03:45:20.804Z,2.50
2022-10-01T03:47:56.916Z,2.50
2022-10-01T03:50:26.692Z,2.60
2022-10-01T03:52:57.089Z,2.75
2022-10-01T03:55:27.620Z,2.83
2022-10-01T03:57:58.635Z,1.88
2022-10-01T04:00:28.548Z,2.22
2022-10-01T04:03:00.898Z,2.30
2022-10-01T04:05:30.994Z,2.30
2022-10-01T04:08:01.219Z,2.63
2022-10-01T04:10:30.964Z,2.00
2022-10-01T04:13:01.295Z,2.63
2022-10-01T04:15:31.013Z,2.35
2022-10-01T04:18:06.266Z,2.40
2022-10-01T04:20:36.437Z,2.28
2022-10-01T04:23:07.035Z,2.10
2022-10-01T04:25:36.813Z,2.30
2022-10-01T04:28:08.697Z,2.60
2022-10-01T04:30:41.107Z,2.33
2022-10-01T04:33:15.658Z,2.83
2022-10-01T04:38:17.567Z,2.20
2022-10-01T04:40:47.623Z,2.17
2022-10-01T04:43:17.319Z,2.60
2022-10-01T04:45:47.041Z,2.38
2022-10-01T04:48:19.374Z,2.50
2022-10-01T04:50:49.125Z,3.15
2022-10-01T04:53:19.069Z,3.10
2022-10-01T04:55:49.059Z,3.45
2022-10-01T04:58:18.867Z,3.00
2022-10-01T05:00:48.958Z,3.30
2022-10-01T05:03:21.599Z,3.20
2022-10-01T05:05:51.346Z,3.00
2022-10-01T05:08:22.572Z,3.10
2022-10-01T05:10:53.128Z,2.60
2022-10-01T05:13:22.890Z,2.70
2022-10-01T05:15:54.509Z,2.25
2022-10-01T05:18:26.824Z,1.73
2022-10-01T05:20:56.625Z,1.67
2022-10-01T05:23:26.337Z,1.70
2022-10-01T05:25:56.145Z,1.60
2022-10-01T05:28:27.072Z,2.00
2022-10-01T05:30:59.426Z,1.95
2022-10-01T05:33:34.075Z,1.63
2022-10-01T05:36:05.142Z,1.80
2022-10-01T05:38:36.184Z,1.73
2022-10-01T05:41:06.128Z,1.90
2022-10-01T05:43:36.101Z,2.00
2022-10-01T05:46:06.777Z,1.90
2022-10-01T05:48:39.392Z,1.55
2022-10-01T05:51:09.438Z,1.77
2022-10-01T05:53:40.140Z,1.70
2022-10-01T05:56:10.646Z,1.90
2022-10-01T05:58:40.375Z,2.17
2022-10-01T06:01:10.131Z,1.90
2022-10-01T06:03:42.973Z,2.25
2022-10-01T06:06:12.784Z,1.95
2022-10-01T06:08:45.446Z,2.05
2022-10-01T06:11:15.157Z,1.88
2022-10-01T06:13:45.180Z,2.45
2022-10-01T06:16:15.060Z,2.13
2022-10-01T06:18:49.739Z,2.08
2022-10-01T06:21:19.429Z,2.30
2022-10-01T06:23:50.429Z,2.47
2022-10-01T06:26:20.843Z,2.60
2022-10-01T06:28:52.760Z,2.80
2022-10-01T06:31:22.937Z,2.78
2022-10-01T06:33:55.295Z,3.17
2022-10-01T06:36:25.069Z,3.45
2022-10-01T06:38:54.781Z,2.70
2022-10-01T06:41:24.915Z,3.47
2022-10-01T06:43:54.662Z,3.22
2022-10-01T06:46:24.615Z,3.90
2022-10-01T06:48:57.003Z,3.42
2022-10-01T06:51:53.678Z,3.33
2022-10-01T06:54:23.512Z,3.53
2022-10-01T06:56:53.691Z,3.75
2022-10-01T06:59:23.460Z,3.15
2022-10-01T07:01:56.372Z,3.85
2022-10-01T07:04:28.879Z,3.90
2022-10-01T07:06:59.507Z,4.72
2022-10-01T07:09:29.608Z,3.70
2022-10-01T07:11:59.325Z,3.92
2022-10-01T07:14:29.057Z,3.92
2022-10-01T07:16:58.755Z,3.90
2022-10-01T07:19:31.802Z,3.58
2022-10-01T07:22:01.620Z,3.38
2022-10-01T07:24:31.345Z,3.95
2022-10-01T07:27:06.464Z,4.18
2022-10-01T07:29:37.334Z,4.00
2022-10-01T07:32:08.934Z,3.83
2022-10-01T07:34:42.626Z,3.72
2022-10-01T07:37:13.426Z,3.57
2022-10-01T07:39:43.141Z,4.40
2022-10-01T07:42:13.057Z,4.38
2022-10-01T07:44:43.280Z,4.72
2022-10-01T07:47:13.221Z,3.63
2022-10-01T07:49:45.508Z,4.68
2022-10-01T07:52:15.217Z,3.20
2022-10-01T07:54:44.991Z,3.33
2022-10-01T07:57:15.272Z,3.20
2022-10-01T07:59:45.019Z,2.72
2022-10-01T08:02:17.760Z,2.53
2022-10-01T08:05:02.630Z,2.65
2022-10-01T08:10:04.350Z,2.83
2022-10-01T08:12:34.214Z,3.00
2022-10-01T08:15:06.771Z,2.58
2022-10-01T08:17:37.807Z,2.90
2022-10-01T08:20:13.032Z,3.13
2022-10-01T08:22:42.775Z,3.50
2022-10-01T08:25:13.032Z,2.95
2022-10-01T08:27:42.772Z,3.60
2022-10-01T08:30:13.286Z,4.28
2022-10-01T08:32:43.011Z,4.32
2022-10-01T08:35:16.035Z,3.60
2022-10-01T08:37:46.354Z,2.80
2022-10-01T08:40:16.088Z,3.22
2022-10-01T08:42:56.258Z,2.90
2022-10-01T08:45:29.828Z,3.58
2022-10-01T08:48:09.212Z,2.93
2022-10-01T08:50:49.528Z,2.60
2022-10-01T08:53:31.411Z,2.78
2022-10-01T08:56:02.385Z,2.90
2022-10-01T08:58:40.541Z,2.97
2022-10-01T09:01:13.280Z,2.85
2022-10-01T09:03:43.485Z,2.70
2022-10-01T09:06:22.561Z,2.75
2022-10-01T09:09:23.717Z,2.92
2022-10-01T09:12:07.575Z,2.70
2022-10-01T09:14:53.936Z,3.03
2022-10-01T09:17:36.073Z,3.10
2022-10-01T09:20:20.075Z,2.95
2022-10-01T09:23:12.262Z,2.50
2022-10-01T09:25:43.107Z,2.88
2022-10-01T09:28:17.410Z,2.22
2022-10-01T09:30:54.912Z,2.17
2022-10-01T09:33:26.069Z,2.45
2022-10-01T09:36:03.216Z,2.17
2022-10-01T09:38:41.192Z,2.70
2022-10-01T09:41:12.923Z,1.92
2022-10-01T09:43:44.791Z,2.17
2022-10-01T09:46:20.163Z,2.03
2022-10-01T09:48:58.738Z,1.73
2022-10-01T09:51:38.038Z,1.50
2022-10-01T09:54:18.532Z,1.95
2022-10-01T09:56:52.518Z,1.85
2022-10-01T09:59:29.644Z,1.70
2022-10-01T10:02:02.410Z,2.53
2022-10-01T10:04:33.061Z,2.00
2022-10-01T10:07:05.140Z,2.20
2022-10-01T10:09:38.941Z,2.00
2022-10-01T10:12:10.664Z,2.28
2022-10-01T10:14:42.014Z,1.42
2022-10-01T10:17:17.488Z,1.63
2022-10-01T10:19:51.585Z,1.50
2022-10-01T10:22:25.515Z,1.73
2022-10-01T10:25:04.209Z,1.30
2022-10-01T10:27:33.961Z,1.73
2022-10-01T10:30:09.832Z,1.65
2022-10-01T10:32:40.060Z,1.63
2022-10-01T10:35:13.526Z,1.63
2022-10-01T10:37:51.185Z,1.25
2022-10-01T10:40:29.277Z,1.38
2022-10-01T10:43:01.754Z,1.30
2022-10-01T10:45:36.566Z,1.38
2022-10-01T10:48:10.204Z,1.52
2022-10-01T10:50:43.215Z,1.27
2022-10-01T10:53:22.788Z,1.48
2022-10-01T10:56:03.916Z,1.58
2022-10-01T10:58:38.037Z,1.30
2022-10-01T11:01:11.910Z,1.00
2022-10-01T11:03:47.144Z,1.20
2022-10-01T11:06:18.881Z,1.10
2022-10-01T11:08:57.222Z,1.10
2022-10-01T11:11:45.383Z,1.23
2022-10-01T11:14:27.331Z,1.30
2022-10-01T11:17:14.239Z,1.00
2022-10-01T11:19:59.134Z,1.48
2022-10-01T11:22:42.412Z,1.40
2022-10-01T11:25:25.178Z,1.13
2022-10-01T11:28:09.161Z,1.02
2022-10-01T11:30:49.237Z,1.02
2022-10-01T11:33:30.096Z,0.80
2022-10-01T11:36:04.545Z,0.68
2022-10-01T11:41:21.362Z,0.80
2022-10-01T11:43:55.956Z,1.02
2022-10-01T11:46:38.691Z,0.70
2022-10-01T11:49:27.521Z,0.70
2022-10-01T11:52:06.193Z,0.70
2022-10-01T11:54:38.829Z,0.93
2022-10-01T11:57:29.334Z,0.70
2022-10-01T12:00:08.225Z,0.60
2022-10-01T12:02:48.487Z,0.80
2022-10-01T12:05:21.538Z,0.77
2022-10-01T12:07:57.619Z,0.80
2022-10-01T12:10:39.314Z,0.47
2022-10-01T12:13:16.442Z,0.60
2022-10-01T12:15:54.491Z,0.57
2022-10-01T12:18:31.120Z,0.60
2022-10-01T12:21:03.925Z,0.70
2022-10-01T12:23:38.492Z,0.73
2022-10-01T12:26:16.070Z,0.50
2022-10-01T12:28:59.995Z,0.70
2022-10-01T12:31:39.445Z,0.60
2022-10-01T12:34:18.460Z,1.00
2022-10-01T12:36:55.935Z,0.90
2022-10-01T12:39:39.675Z,0.70
2022-10-01T12:42:30.151Z,0.80
2022-10-01T12:45:12.855Z,0.60
2022-10-01T12:47:53.953Z,0.60
2022-10-01T12:50:33.564Z,0.75
2022-10-01T12:53:19.513Z,0.70
2022-10-01T12:56:07.227Z,0.80
2022-10-01T12:58:56.190Z,0.70
2022-10-01T13:01:36.275Z,0.70
2022-10-01T13:04:35.474Z,0.90
2022-10-01T13:07:22.039Z,0.60
2022-10-01T13:10:01.253Z,0.82
2022-10-01T13:12:50.591Z,1.00
2022-10-01T13:15:23.873Z,0.65
2022-10-01T13:17:59.990Z,0.60
2022-10-01T13:20:41.171Z,0.68
2022-10-01T13:23:20.027Z,0.70
2022-10-01T13:26:02.428Z,0.70
2022-10-01T13:28:50.972Z,0.75
2022-10-01T13:31:21.774Z,0.80
2022-10-01T13:33:58.925Z,0.60
2022-10-01T13:36:38.254Z,0.70
2022-10-01T13:39:08.298Z,0.60
2022-10-01T13:41:38.386Z,0.50
2022-10-01T13:44:26.559Z,0.60
2022-10-01T13:47:03.608Z,0.60
2022-10-01T13:49:34.648Z,0.68
2022-10-01T13:52:07.563Z,1.02
2022-10-01T13:54:41.086Z,0.70
2022-10-01T13:57:11.894Z,0.53
2022-10-01T13:59:43.308Z,0.70
2022-10-01T14:02:34.681Z,0.50
2022-10-01T14:05:23.274Z,0.70
2022-10-01T14:08:01.861Z,0.80
2022-10-01T14:10:58.894Z,0.93
2022-10-01T14:13:43.255Z,1.00
2022-10-01T14:16:13.603Z,0.60
2022-10-01T14:18:47.224Z,0.70
2022-10-01T14:21:33.503Z,0.57
2022-10-01T14:24:17.328Z,0.60
2022-10-01T14:26:55.420Z,0.60
2022-10-01T14:29:37.297Z,0.80
2022-10-01T14:32:21.325Z,0.73
2022-10-01T14:35:03.099Z,0.77
2022-10-01T14:37:33.086Z,0.90
2022-10-01T14:40:17.920Z,0.68
2022-10-01T14:42:58.268Z,1.38
2022-10-01T14:45:28.110Z,0.90
2022-10-01T14:48:04.875Z,0.85
2022-10-01T14:50:36.511Z,0.47
2022-10-01T14:53:07.810Z,0.63
2022-10-01T14:55:40.174Z,0.98
2022-10-01T14:58:10.308Z,0.70
2022-10-01T15:00:40.213Z,0.70
2022-10-01T15:03:15.600Z,0.40
2022-10-01T15:05:47.162Z,0.70
2022-10-01T15:08:20.182Z,0.70
2022-10-01T15:10:56.027Z,1.27
2022-10-01T15:13:30.008Z,1.70
2022-10-01T15:15:59.830Z,0.60
2022-10-01T15:18:30.115Z,0.73
2022-10-01T15:21:04.741Z,0.50
2022-10-01T15:23:36.629Z,0.70
2022-10-01T15:26:13.761Z,0.98
2022-10-01T15:28:44.477Z,0.90
2022-10-01T15:31:14.465Z,0.60
2022-10-01T15:33:45.086Z,0.63
2022-10-01T15:36:18.779Z,0.80
2022-10-01T15:38:50.968Z,0.60
2022-10-01T15:41:32.533Z,0.77
2022-10-01T15:44:06.538Z,1.00
2022-10-01T15:46:37.256Z,1.70
2022-10-01T15:49:15.894Z,0.73
2022-10-01T15:52:11.298Z,0.63
2022-10-01T15:54:43.055Z,0.80
2022-10-01T15:57:20.252Z,0.60
2022-10-01T15:59:51.798Z,0.80
2022-10-01T16:02:25.511Z,0.93
2022-10-01T16:04:56.143Z,0.85
2022-10-01T16:07:34.805Z,0.90
2022-10-01T16:10:18.018Z,0.95
2022-10-01T16:12:50.331Z,1.30
2022-10-01T16:15:28.732Z,0.90
2022-10-01T16:18:02.322Z,0.85
2022-10-01T16:20:43.922Z,1.48
2022-10-01T16:23:37.214Z,1.00
2022-10-01T16:26:09.128Z,0.93
2022-10-01T16:28:41.530Z,0.88
2022-10-01T16:31:11.507Z,0.90
2022-10-01T16:33:41.249Z,1.05
2022-10-01T16:36:12.648Z,1.95
2022-10-01T16:38:42.403Z,1.67
2022-10-01T16:41:12.939Z,0.90
2022-10-01T16:43:45.297Z,1.08
2022-10-01T16:46:15.156Z,1.23
2022-10-01T16:48:44.877Z,1.00
2022-10-01T16:51:14.707Z,0.98
2022-10-01T16:53:45.901Z,2.42
2022-10-01T16:56:16.282Z,1.30
2022-10-01T16:58:48.601Z,1.15
2022-10-01T17:01:18.650Z,1.10
2022-10-01T17:03:48.491Z,0.80
2022-10-01T17:06:18.383Z,0.73
2022-10-01T17:08:48.094Z,1.75
2022-10-01T17:11:17.886Z,1.60
2022-10-01T17:13:50.209Z,1.13
2022-10-01T17:16:24.413Z,2.15
2022-10-01T17:21:24.156Z,1.25
2022-10-01T17:23:53.855Z,1.08
2022-10-01T17:26:23.860Z,1.35
2022-10-01T17:28:56.165Z,1.50
2022-10-01T17:31:27.393Z,1.58
2022-10-01T17:33:57.195Z,2.25
2022-10-01T17:36:27.023Z,2.45
2022-10-01T17:38:56.726Z,1.73
2022-10-01T17:41:26.639Z,3.90
2022-10-01T17:44:00.053Z,3.67
2022-10-01T17:46:29.801Z,1.60
2022-10-01T17:48:59.561Z,2.55
2022-10-01T17:51:29.307Z,1.65
2022-10-01T17:53:59.775Z,1.85
2022-10-01T17:56:32.377Z,2.28
2022-10-01T17:59:05.119Z,1.70
2022-10-01T18:01:35.080Z,1.48
2022-10-01T18:04:05.676Z,1.20
2022-10-01T18:06:36.143Z,1.40
2022-10-01T18:09:06.261Z,1.65
2022-10-01T18:11:36.758Z,1.90
2022-10-01T18:14:09.152Z,1.67
2022-10-01T18:16:39.589Z,2.08
2022-10-01T18:22:01.311Z,2.78
2022-10-01T18:24:34.466Z,1.70
2022-10-01T18:27:04.249Z,1.85
2022-10-01T18:29:38.751Z,1.70
2022-10-01T18:32:17.178Z,1.60
2022-10-01T18:34:52.141Z,1.52
2022-10-01T18:37:33.961Z,3.63
2022-10-01T18:40:11.002Z,2.15
2022-10-01T18:42:49.373Z,1.73
2022-10-01T18:45:34.188Z,1.55
2022-10-01T18:48:16.778Z,2.25
2022-10-01T18:50:55.596Z,2.15
2022-10-01T18:53:50.924Z,3.90
2022-10-01T18:56:34.321Z,4.10
2022-10-01T18:59:35.623Z,1.55
2022-10-01T19:02:31.621Z,1.60
2022-10-01T19:05:26.819Z,1.27
2022-10-01T19:08:05.537Z,1.00
2022-10-01T19:10:42.058Z,1.13
2022-10-01T19:13:19.251Z,1.17
2022-10-01T19:16:01.489Z,1.48
2022-10-01T19:19:03.742Z,1.70
2022-10-01T19:21:40.927Z,1.23
2022-10-01T19:24:26.380Z,1.13
2022-10-01T19:27:05.366Z,1.67
2022-10-01T19:29:49.986Z,1.33
2022-10-01T19:32:25.411Z,1.40
2022-10-01T19:35:05.660Z,1.77
2022-10-01T19:37:41.138Z,1.05
2022-10-01T19:40:25.408Z,2.17
2022-10-01T19:43:03.595Z,1.33
2022-10-01T19:45:45.049Z,1.42
2022-10-01T19:48:21.775Z,1.40
2022-10-01T19:50:58.390Z,2.63
2022-10-01T19:53:31.905Z,1.90
2022-10-01T19:56:03.359Z,1.83
2022-10-01T19:58:35.358Z,2.10
2022-10-01T20:01:06.618Z,1.52
2022-10-01T20:03:40.777Z,1.48
2022-10-01T20:06:20.948Z,1.70
2022-10-01T20:08:55.722Z,1.70
2022-10-01T20:11:31.757Z,1.50
2022-10-01T20:14:33.136Z,1.73
2022-10-01T20:17:07.247Z,2.08
2022-10-01T20:19:44.849Z,1.70
2022-10-01T20:22:25.590Z,1.90
2022-10-01T20:25:02.920Z,1.55
2022-10-01T20:27:45.820Z,1.75
2022-10-01T20:30:22.189Z,1.92
2022-10-01T20:33:01.612Z,1.65
2022-10-01T20:35:38.101Z,2.55
2022-10-01T20:38:17.436Z,2.15
2022-10-01T20:40:52.427Z,2.40
2022-10-01T20:43:31.290Z,1.90
2022-10-01T20:46:07.213Z,1.88
2022-10-01T20:48:40.448Z,1.98
2022-10-01T20:51:17.360Z,2.67
2022-10-01T20:53:56.559Z,3.33
2022-10-01T20:56:31.029Z,2.40
2022-10-01T21:01:38.751Z,2.10
2022-10-01T21:06:45.664Z,2.42
2022-10-01T21:09:28.045Z,2.92
2022-10-01T21:12:04.678Z,2.08
2022-10-01T21:14:39.405Z,2.28
2022-10-01T21:17:25.179Z,2.28
2022-10-01T21:20:16.757Z,2.25
2022-10-01T21:23:03.473Z,2.10
2022-10-01T21:25:50.281Z,2.28
2022-10-01T21:28:57.649Z,3.00
2022-10-01T21:31:37.548Z,2.03
2022-10-01T21:34:17.569Z,2.38
2022-10-01T21:36:56.499Z,2.00
2022-10-01T21:39:34.431Z,1.75
2022-10-01T21:42:17.171Z,1.95
2022-10-01T21:45:11.005Z,3.00
2022-10-01T21:47:54.235Z,2.35
2022-10-01T21:50:35.583Z,2.35
2022-10-01T21:53:29.043Z,1.88
2022-10-01T21:56:23.457Z,2.33
2022-10-01T21:59:08.025Z,2.10
2022-10-01T22:01:56.477Z,2.88
2022-10-01T22:04:35.373Z,2.72
2022-10-01T22:07:14.908Z,2.53
2022-10-01T22:09:53.514Z,2.45
2022-10-01T22:12:24.175Z,2.33
2022-10-01T22:14:59.458Z,2.42
2022-10-01T22:17:33.980Z,2.08
2022-10-01T22:20:07.318Z,2.90
2022-10-01T22:22:41.201Z,2.10
2022-10-01T22:25:13.745Z,2.92
2022-10-01T22:27:50.696Z,2.80
2022-10-01T22:30:25.356Z,2.30
2022-10-01T22:33:04.055Z,2.70
2022-10-01T22:35:38.389Z,2.33
2022-10-01T22:40:44.773Z,2.20
2022-10-01T22:43:16.776Z,2.00
2022-10-01T22:46:07.874Z,2.45
2022-10-01T22:48:59.898Z,2.40
2022-10-01T22:51:46.583Z,2.22
2022-10-01T22:54:31.921Z,2.22
2022-10-01T22:57:16.083Z,1.90
2022-10-01T22:59:53.862Z,1.90
2022-10-01T23:02:34.667Z,1.98
2022-10-01T23:05:13.735Z,2.15
2022-10-01T23:07:52.509Z,2.00
2022-10-01T23:10:32.436Z,1.85
2022-10-01T23:13:15.278Z,1.80
2022-10-01T23:15:52.990Z,1.98
2022-10-01T23:18:36.859Z,2.00
2022-10-01T23:21:19.040Z,2.33
2022-10-01T23:23:58.378Z,1.40
2022-10-01T23:26:37.682Z,1.98
2022-10-01T23:29:24.469Z,1.70
2022-10-01T23:32:05.775Z,1.83
2022-10-01T23:34:49.445Z,1.70
2022-10-01T23:37:40.955Z,1.65
2022-10-01T23:40:14.005Z,3.50
2022-10-01T23:42:50.110Z,2.28
2022-10-01T23:45:26.643Z,1.98
2022-10-01T23:48:02.839Z,1.85
2022-10-01T23:50:45.801Z,2.47
2022-10-01T23:53:19.314Z,2.50
2022-10-01T23:56:08.240Z,2.10
2022-10-01T23:58:45.897Z,2.30
